sensor_id;sensor_type;location;lat;lon;timestamp;P1;durP1;ratioP1;P2;durP2;ratioP2
40373;SDS011;26079;45.958;12.492;2023-07-31T00:00:13;4.55;;;2.65;;
40373;SDS011;26079;45.958;12.492;2023-07-31T00:02:39;4.60;;;2.55;;
40373;SDS011;26079;45.958;12.492;2023-07-31T00:05:05;3.40;;;2.53;;
40373;SDS011;26079;45.958;12.492;2023-07-31T00:07:33;12.05;;;3.00;;
40373;SDS011;26079;45.958;12.492;2023-07-31T00:09:58;4.55;;;2.80;;
40373;SDS011;26079;45.958;12.492;2023-07-31T00:12:24;3.58;;;2.33;;
40373;SDS011;26079;45.958;12.492;2023-07-31T00:14:50;3.58;;;2.85;;
40373;SDS011;26079;45.958;12.492;2023-07-31T00:17:16;5.05;;;2.08;;
40373;SDS011;26079;45.958;12.492;2023-07-31T00:19:42;5.30;;;2.80;;
40373;SDS011;26079;45.958;12.492;2023-07-31T00:22:08;2.67;;;2.03;;
40373;SDS011;26079;45.958;12.492;2023-07-31T00:24:33;4.15;;;1.83;;
40373;SDS011;26079;45.958;12.492;2023-07-31T00:26:59;6.75;;;2.38;;
40373;SDS011;26079;45.958;12.492;2023-07-31T00:29:25;5.05;;;1.95;;
40373;SDS011;26079;45.958;12.492;2023-07-31T00:31:50;2.63;;;2.38;;
40373;SDS011;26079;45.958;12.492;2023-07-31T00:34:16;3.28;;;2.20;;
40373;SDS011;26079;45.958;12.492;2023-07-31T00:36:42;2.97;;;1.70;;
40373;SDS011;26079;45.958;12.492;2023-07-31T00:39:08;4.40;;;2.25;;
40373;SDS011;26079;45.958;12.492;2023-07-31T00:41:33;9.02;;;1.83;;
40373;SDS011;26079;45.958;12.492;2023-07-31T00:44:00;4.60;;;2.08;;
40373;SDS011;26079;45.958;12.492;2023-07-31T00:46:25;6.55;;;2.70;;
40373;SDS011;26079;45.958;12.492;2023-07-31T00:48:51;2.20;;;2.00;;
40373;SDS011;26079;45.958;12.492;2023-07-31T00:51:17;2.38;;;2.17;;
40373;SDS011;26079;45.958;12.492;2023-07-31T00:53:43;2.88;;;2.30;;
40373;SDS011;26079;45.958;12.492;2023-07-31T00:56:10;4.40;;;2.10;;
40373;SDS011;26079;45.958;12.492;2023-07-31T00:58:37;8.55;;;2.25;;
40373;SDS011;26079;45.958;12.492;2023-07-31T01:01:02;4.63;;;2.40;;
40373;SDS011;26079;45.958;12.492;2023-07-31T01:03:28;7.15;;;1.92;;
40373;SDS011;26079;45.958;12.492;2023-07-31T01:08:42;8.60;;;2.40;;
40373;SDS011;26079;45.958;12.492;2023-07-31T01:11:29;6.35;;;1.98;;
40373;SDS011;26079;45.958;12.492;2023-07-31T01:13:56;18.45;;;4.57;;
40373;SDS011;26079;45.958;12.492;2023-07-31T01:16:23;4.90;;;2.03;;
40373;SDS011;26079;45.958;12.492;2023-07-31T01:18:49;2.92;;;2.00;;
40373;SDS011;26079;45.958;12.492;2023-07-31T01:21:21;3.88;;;1.95;;
40373;SDS011;26079;45.958;12.492;2023-07-31T01:27:06;7.05;;;2.00;;
40373;SDS011;26079;45.958;12.492;2023-07-31T01:29:47;5.13;;;2.08;;
40373;SDS011;26079;45.958;12.492;2023-07-31T01:34:47;3.22;;;1.67;;
40373;SDS011;26079;45.958;12.492;2023-07-31T01:37:14;1.92;;;1.83;;
40373;SDS011;26079;45.958;12.492;2023-07-31T01:39:40;3.05;;;2.05;;
40373;SDS011;26079;45.958;12.492;2023-07-31T01:42:06;2.95;;;2.30;;
40373;SDS011;26079;45.958;12.492;2023-07-31T01:44:32;2.58;;;2.03;;
40373;SDS011;26079;45.958;12.492;2023-07-31T01:46:58;3.13;;;2.10;;
40373;SDS011;26079;45.958;12.492;2023-07-31T01:49:25;7.03;;;2.53;;
40373;SDS011;26079;45.958;12.492;2023-07-31T01:51:51;4.25;;;1.80;;
40373;SDS011;26079;45.958;12.492;2023-07-31T01:54:16;3.60;;;1.95;;
40373;SDS011;26079;45.958;12.492;2023-07-31T01:56:42;4.13;;;2.03;;
40373;SDS011;26079;45.958;12.492;2023-07-31T01:59:08;3.40;;;1.88;;
40373;SDS011;26079;45.958;12.492;2023-07-31T02:01:33;3.08;;;2.03;;
40373;SDS011;26079;45.958;12.492;2023-07-31T02:03:59;3.85;;;1.75;;
40373;SDS011;26079;45.958;12.492;2023-07-31T02:06:25;3.65;;;2.13;;
40373;SDS011;26079;45.958;12.492;2023-07-31T02:08:51;5.10;;;1.77;;
40373;SDS011;26079;45.958;12.492;2023-07-31T02:11:16;2.47;;;1.83;;
40373;SDS011;26079;45.958;12.492;2023-07-31T02:13:43;5.30;;;2.38;;
40373;SDS011;26079;45.958;12.492;2023-07-31T02:16:08;5.00;;;2.05;;
40373;SDS011;26079;45.958;12.492;2023-07-31T02:18:34;3.95;;;1.45;;
40373;SDS011;26079;45.958;12.492;2023-07-31T02:21:00;4.07;;;1.80;;
40373;SDS011;26079;45.958;12.492;2023-07-31T02:23:25;1.88;;;1.70;;
40373;SDS011;26079;45.958;12.492;2023-07-31T02:25:51;2.75;;;2.17;;
40373;SDS011;26079;45.958;12.492;2023-07-31T02:28:17;3.25;;;1.65;;
40373;SDS011;26079;45.958;12.492;2023-07-31T02:30:45;3.72;;;1.55;;
40373;SDS011;26079;45.958;12.492;2023-07-31T02:33:11;7.95;;;1.50;;
40373;SDS011;26079;45.958;12.492;2023-07-31T02:35:37;3.50;;;1.50;;
40373;SDS011;26079;45.958;12.492;2023-07-31T02:38:02;2.45;;;1.80;;
40373;SDS011;26079;45.958;12.492;2023-07-31T02:40:28;3.05;;;1.55;;
40373;SDS011;26079;45.958;12.492;2023-07-31T02:42:54;4.70;;;1.85;;
40373;SDS011;26079;45.958;12.492;2023-07-31T02:45:20;12.65;;;2.63;;
40373;SDS011;26079;45.958;12.492;2023-07-31T02:47:45;3.85;;;1.55;;
40373;SDS011;26079;45.958;12.492;2023-07-31T02:50:11;1.85;;;1.70;;
40373;SDS011;26079;45.958;12.492;2023-07-31T02:52:37;4.45;;;1.38;;
40373;SDS011;26079;45.958;12.492;2023-07-31T02:55:02;5.03;;;1.70;;
40373;SDS011;26079;45.958;12.492;2023-07-31T02:57:28;11.93;;;2.83;;
40373;SDS011;26079;45.958;12.492;2023-07-31T02:59:57;4.03;;;1.33;;
40373;SDS011;26079;45.958;12.492;2023-07-31T03:02:23;3.00;;;1.98;;
40373;SDS011;26079;45.958;12.492;2023-07-31T03:04:48;1.80;;;1.52;;
40373;SDS011;26079;45.958;12.492;2023-07-31T03:07:14;2.88;;;1.85;;
40373;SDS011;26079;45.958;12.492;2023-07-31T03:09:40;4.13;;;1.73;;
40373;SDS011;26079;45.958;12.492;2023-07-31T03:12:06;2.75;;;1.40;;
40373;SDS011;26079;45.958;12.492;2023-07-31T03:14:32;2.60;;;1.60;;
40373;SDS011;26079;45.958;12.492;2023-07-31T03:16:59;8.20;;;2.05;;
40373;SDS011;26079;45.958;12.492;2023-07-31T03:19:25;5.03;;;1.42;;
40373;SDS011;26079;45.958;12.492;2023-07-31T03:21:50;5.20;;;1.45;;
40373;SDS011;26079;45.958;12.492;2023-07-31T03:24:16;5.50;;;1.50;;
40373;SDS011;26079;45.958;12.492;2023-07-31T03:26:42;2.17;;;1.42;;
40373;SDS011;26079;45.958;12.492;2023-07-31T03:29:08;4.65;;;1.55;;
40373;SDS011;26079;45.958;12.492;2023-07-31T03:31:33;9.18;;;1.90;;
40373;SDS011;26079;45.958;12.492;2023-07-31T03:33:59;4.50;;;1.58;;
40373;SDS011;26079;45.958;12.492;2023-07-31T03:36:25;2.88;;;1.50;;
40373;SDS011;26079;45.958;12.492;2023-07-31T03:38:53;1.50;;;1.40;;
40373;SDS011;26079;45.958;12.492;2023-07-31T03:41:19;5.38;;;1.65;;
40373;SDS011;26079;45.958;12.492;2023-07-31T03:43:46;3.17;;;1.88;;
40373;SDS011;26079;45.958;12.492;2023-07-31T03:46:16;5.97;;;1.50;;
40373;SDS011;26079;45.958;12.492;2023-07-31T03:48:42;2.08;;;1.88;;
40373;SDS011;26079;45.958;12.492;2023-07-31T03:51:07;6.85;;;2.47;;
40373;SDS011;26079;45.958;12.492;2023-07-31T03:53:33;7.10;;;1.33;;
40373;SDS011;26079;45.958;12.492;2023-07-31T03:55:59;5.03;;;2.50;;
40373;SDS011;26079;45.958;12.492;2023-07-31T03:58:24;13.38;;;2.00;;
40373;SDS011;26079;45.958;12.492;2023-07-31T04:00:50;2.63;;;1.70;;
40373;SDS011;26079;45.958;12.492;2023-07-31T04:03:16;4.07;;;1.60;;
40373;SDS011;26079;45.958;12.492;2023-07-31T04:05:41;2.60;;;1.58;;
40373;SDS011;26079;45.958;12.492;2023-07-31T04:08:07;7.30;;;2.00;;
40373;SDS011;26079;45.958;12.492;2023-07-31T04:10:33;4.53;;;2.13;;
40373;SDS011;26079;45.958;12.492;2023-07-31T04:12:59;5.18;;;1.40;;
40373;SDS011;26079;45.958;12.492;2023-07-31T04:15:25;3.85;;;1.27;;
40373;SDS011;26079;45.958;12.492;2023-07-31T04:17:51;4.47;;;1.70;;
40373;SDS011;26079;45.958;12.492;2023-07-31T04:20:17;4.75;;;1.30;;
40373;SDS011;26079;45.958;12.492;2023-07-31T04:22:42;2.30;;;1.70;;
40373;SDS011;26079;45.958;12.492;2023-07-31T04:25:08;3.85;;;1.63;;
40373;SDS011;26079;45.958;12.492;2023-07-31T04:27:34;5.07;;;2.13;;
40373;SDS011;26079;45.958;12.492;2023-07-31T04:29:59;2.08;;;1.52;;
40373;SDS011;26079;45.958;12.492;2023-07-31T04:32:25;1.83;;;1.42;;
40373;SDS011;26079;45.958;12.492;2023-07-31T04:34:51;2.58;;;1.23;;
40373;SDS011;26079;45.958;12.492;2023-07-31T04:37:16;1.52;;;1.30;;
40373;SDS011;26079;45.958;12.492;2023-07-31T04:39:42;3.25;;;1.50;;
40373;SDS011;26079;45.958;12.492;2023-07-31T04:42:08;10.57;;;1.63;;
40373;SDS011;26079;45.958;12.492;2023-07-31T04:44:34;2.22;;;1.40;;
40373;SDS011;26079;45.958;12.492;2023-07-31T04:47:00;4.15;;;1.60;;
40373;SDS011;26079;45.958;12.492;2023-07-31T04:49:27;3.33;;;1.83;;
40373;SDS011;26079;45.958;12.492;2023-07-31T04:51:53;1.40;;;1.08;;
40373;SDS011;26079;45.958;12.492;2023-07-31T04:54:18;3.22;;;1.42;;
40373;SDS011;26079;45.958;12.492;2023-07-31T04:56:44;3.15;;;1.75;;
40373;SDS011;26079;45.958;12.492;2023-07-31T04:59:10;1.45;;;1.10;;
40373;SDS011;26079;45.958;12.492;2023-07-31T05:01:35;4.30;;;1.15;;
40373;SDS011;26079;45.958;12.492;2023-07-31T05:04:01;3.30;;;1.65;;
40373;SDS011;26079;45.958;12.492;2023-07-31T05:06:27;1.58;;;1.10;;
40373;SDS011;26079;45.958;12.492;2023-07-31T05:08:53;3.80;;;1.23;;
40373;SDS011;26079;45.958;12.492;2023-07-31T05:11:18;3.72;;;0.98;;
40373;SDS011;26079;45.958;12.492;2023-07-31T05:13:44;4.88;;;1.25;;
40373;SDS011;26079;45.958;12.492;2023-07-31T05:16:10;2.50;;;1.25;;
40373;SDS011;26079;45.958;12.492;2023-07-31T05:18:35;2.83;;;1.48;;
40373;SDS011;26079;45.958;12.492;2023-07-31T05:21:01;2.45;;;1.52;;
40373;SDS011;26079;45.958;12.492;2023-07-31T05:23:27;1.02;;;1.00;;
40373;SDS011;26079;45.958;12.492;2023-07-31T05:25:53;3.25;;;1.40;;
40373;SDS011;26079;45.958;12.492;2023-07-31T05:28:18;2.10;;;1.30;;
40373;SDS011;26079;45.958;12.492;2023-07-31T05:30:46;4.57;;;1.13;;
40373;SDS011;26079;45.958;12.492;2023-07-31T05:33:11;5.65;;;1.98;;
40373;SDS011;26079;45.958;12.492;2023-07-31T05:35:37;1.63;;;1.15;;
40373;SDS011;26079;45.958;12.492;2023-07-31T05:38:03;3.92;;;1.80;;
40373;SDS011;26079;45.958;12.492;2023-07-31T05:40:31;3.45;;;0.80;;
40373;SDS011;26079;45.958;12.492;2023-07-31T05:43:04;2.95;;;0.90;;
40373;SDS011;26079;45.958;12.492;2023-07-31T05:45:31;1.42;;;0.93;;
40373;SDS011;26079;45.958;12.492;2023-07-31T05:47:57;5.88;;;1.60;;
40373;SDS011;26079;45.958;12.492;2023-07-31T05:50:22;1.80;;;0.80;;
40373;SDS011;26079;45.958;12.492;2023-07-31T05:52:48;0.98;;;0.80;;
40373;SDS011;26079;45.958;12.492;2023-07-31T05:55:14;1.23;;;0.80;;
40373;SDS011;26079;45.958;12.492;2023-07-31T05:57:41;5.95;;;1.52;;
40373;SDS011;26079;45.958;12.492;2023-07-31T06:00:07;27.05;;;2.88;;
40373;SDS011;26079;45.958;12.492;2023-07-31T06:02:33;4.28;;;1.77;;
40373;SDS011;26079;45.958;12.492;2023-07-31T06:05:01;3.58;;;1.25;;
40373;SDS011;26079;45.958;12.492;2023-07-31T06:07:29;3.13;;;1.38;;
40373;SDS011;26079;45.958;12.492;2023-07-31T06:09:55;1.77;;;1.20;;
40373;SDS011;26079;45.958;12.492;2023-07-31T06:12:28;1.05;;;0.70;;
40373;SDS011;26079;45.958;12.492;2023-07-31T06:14:54;2.45;;;1.05;;
40373;SDS011;26079;45.958;12.492;2023-07-31T06:17:20;1.45;;;1.08;;
40373;SDS011;26079;45.958;12.492;2023-07-31T06:19:46;6.93;;;1.23;;
40373;SDS011;26079;45.958;12.492;2023-07-31T06:22:12;1.85;;;1.00;;
40373;SDS011;26079;45.958;12.492;2023-07-31T06:24:38;1.00;;;0.57;;
40373;SDS011;26079;45.958;12.492;2023-07-31T06:27:04;0.85;;;0.68;;
40373;SDS011;26079;45.958;12.492;2023-07-31T06:29:36;0.80;;;0.70;;
40373;SDS011;26079;45.958;12.492;2023-07-31T06:32:01;1.63;;;1.15;;
40373;SDS011;26079;45.958;12.492;2023-07-31T06:34:27;1.70;;;1.10;;
40373;SDS011;26079;45.958;12.492;2023-07-31T06:36:53;1.95;;;1.00;;
40373;SDS011;26079;45.958;12.492;2023-07-31T06:39:19;6.72;;;1.63;;
40373;SDS011;26079;45.958;12.492;2023-07-31T06:41:44;20.77;;;1.48;;
40373;SDS011;26079;45.958;12.492;2023-07-31T06:44:10;8.65;;;3.50;;
40373;SDS011;26079;45.958;12.492;2023-07-31T06:46:36;19.65;;;4.32;;
40373;SDS011;26079;45.958;12.492;2023-07-31T06:49:02;11.57;;;3.72;;
40373;SDS011;26079;45.958;12.492;2023-07-31T06:51:27;6.03;;;4.20;;
40373;SDS011;26079;45.958;12.492;2023-07-31T06:53:53;4.90;;;3.13;;
40373;SDS011;26079;45.958;12.492;2023-07-31T06:56:20;4.70;;;2.50;;
40373;SDS011;26079;45.958;12.492;2023-07-31T06:58:46;7.60;;;3.30;;
40373;SDS011;26079;45.958;12.492;2023-07-31T07:01:12;5.82;;;2.33;;
40373;SDS011;26079;45.958;12.492;2023-07-31T07:03:38;4.80;;;1.80;;
40373;SDS011;26079;45.958;12.492;2023-07-31T07:06:03;1.98;;;1.00;;
40373;SDS011;26079;45.958;12.492;2023-07-31T07:08:29;1.63;;;1.25;;
40373;SDS011;26079;45.958;12.492;2023-07-31T07:10:55;1.15;;;0.80;;
40373;SDS011;26079;45.958;12.492;2023-07-31T07:13:21;0.80;;;0.80;;
40373;SDS011;26079;45.958;12.492;2023-07-31T07:15:50;0.82;;;0.82;;
40373;SDS011;26079;45.958;12.492;2023-07-31T07:18:16;2.20;;;0.70;;
40373;SDS011;26079;45.958;12.492;2023-07-31T07:20:46;1.92;;;1.00;;
40373;SDS011;26079;45.958;12.492;2023-07-31T07:23:12;0.90;;;0.90;;
40373;SDS011;26079;45.958;12.492;2023-07-31T07:25:38;1.95;;;1.05;;
40373;SDS011;26079;45.958;12.492;2023-07-31T07:28:04;0.60;;;0.40;;
40373;SDS011;26079;45.958;12.492;2023-07-31T07:30:29;0.95;;;0.80;;
40373;SDS011;26079;45.958;12.492;2023-07-31T07:32:55;1.08;;;0.80;;
40373;SDS011;26079;45.958;12.492;2023-07-31T07:35:21;0.90;;;0.70;;
40373;SDS011;26079;45.958;12.492;2023-07-31T07:37:48;2.47;;;0.85;;
40373;SDS011;26079;45.958;12.492;2023-07-31T07:40:15;0.82;;;0.77;;
40373;SDS011;26079;45.958;12.492;2023-07-31T07:42:41;2.88;;;0.90;;
40373;SDS011;26079;45.958;12.492;2023-07-31T07:45:07;4.57;;;0.85;;
40373;SDS011;26079;45.958;12.492;2023-07-31T07:47:33;4.80;;;0.75;;
40373;SDS011;26079;45.958;12.492;2023-07-31T07:49:58;2.65;;;1.05;;
40373;SDS011;26079;45.958;12.492;2023-07-31T07:52:24;1.77;;;1.08;;
40373;SDS011;26079;45.958;12.492;2023-07-31T07:54:50;1.63;;;0.93;;
40373;SDS011;26079;45.958;12.492;2023-07-31T07:57:16;4.72;;;1.08;;
40373;SDS011;26079;45.958;12.492;2023-07-31T07:59:42;2.42;;;1.75;;
40373;SDS011;26079;45.958;12.492;2023-07-31T08:02:07;1.88;;;1.77;;
40373;SDS011;26079;45.958;12.492;2023-07-31T08:04:33;2.08;;;1.73;;
40373;SDS011;26079;45.958;12.492;2023-07-31T08:06:59;5.47;;;2.08;;
40373;SDS011;26079;45.958;12.492;2023-07-31T08:09:24;4.80;;;3.28;;
40373;SDS011;26079;45.958;12.492;2023-07-31T08:11:50;4.10;;;1.65;;
40373;SDS011;26079;45.958;12.492;2023-07-31T08:14:16;1.17;;;1.05;;
40373;SDS011;26079;45.958;12.492;2023-07-31T08:16:42;6.22;;;4.15;;
40373;SDS011;26079;45.958;12.492;2023-07-31T08:19:09;5.03;;;3.17;;
40373;SDS011;26079;45.958;12.492;2023-07-31T08:21:34;2.75;;;2.13;;
40373;SDS011;26079;45.958;12.492;2023-07-31T08:24:00;7.35;;;1.75;;
40373;SDS011;26079;45.958;12.492;2023-07-31T08:26:26;11.57;;;2.05;;
40373;SDS011;26079;45.958;12.492;2023-07-31T08:28:51;1.15;;;0.98;;
40373;SDS011;26079;45.958;12.492;2023-07-31T08:31:17;4.80;;;1.00;;
40373;SDS011;26079;45.958;12.492;2023-07-31T08:33:44;3.45;;;0.98;;
40373;SDS011;26079;45.958;12.492;2023-07-31T08:36:09;1.30;;;0.90;;
40373;SDS011;26079;45.958;12.492;2023-07-31T08:38:35;3.88;;;1.05;;
40373;SDS011;26079;45.958;12.492;2023-07-31T08:41:02;0.57;;;0.57;;
40373;SDS011;26079;45.958;12.492;2023-07-31T08:43:29;1.58;;;1.02;;
40373;SDS011;26079;45.958;12.492;2023-07-31T08:45:55;12.32;;;2.78;;
40373;SDS011;26079;45.958;12.492;2023-07-31T08:48:22;1.55;;;1.17;;
40373;SDS011;26079;45.958;12.492;2023-07-31T08:50:49;1.25;;;0.82;;
40373;SDS011;26079;45.958;12.492;2023-07-31T08:53:16;3.30;;;0.90;;
40373;SDS011;26079;45.958;12.492;2023-07-31T08:55:42;0.98;;;0.98;;
40373;SDS011;26079;45.958;12.492;2023-07-31T08:58:09;2.30;;;1.88;;
40373;SDS011;26079;45.958;12.492;2023-07-31T09:00:37;4.60;;;1.30;;
40373;SDS011;26079;45.958;12.492;2023-07-31T09:03:14;4.47;;;1.38;;
40373;SDS011;26079;45.958;12.492;2023-07-31T09:05:43;0.73;;;0.73;;
40373;SDS011;26079;45.958;12.492;2023-07-31T09:08:10;3.28;;;1.15;;
40373;SDS011;26079;45.958;12.492;2023-07-31T09:10:43;1.02;;;0.85;;
40373;SDS011;26079;45.958;12.492;2023-07-31T09:13:14;0.93;;;0.80;;
40373;SDS011;26079;45.958;12.492;2023-07-31T09:15:42;1.67;;;0.75;;
40373;SDS011;26079;45.958;12.492;2023-07-31T09:18:09;4.97;;;1.10;;
40373;SDS011;26079;45.958;12.492;2023-07-31T09:20:35;6.85;;;1.40;;
40373;SDS011;26079;45.958;12.492;2023-07-31T09:28:02;4.65;;;1.45;;
40373;SDS011;26079;45.958;12.492;2023-07-31T09:30:29;2.25;;;1.27;;
40373;SDS011;26079;45.958;12.492;2023-07-31T09:33:02;2.38;;;1.08;;
40373;SDS011;26079;45.958;12.492;2023-07-31T09:35:32;0.85;;;0.82;;
40373;SDS011;26079;45.958;12.492;2023-07-31T09:38:20;1.17;;;0.70;;
40373;SDS011;26079;45.958;12.492;2023-07-31T09:40:45;1.35;;;1.25;;
40373;SDS011;26079;45.958;12.492;2023-07-31T09:43:13;2.25;;;1.20;;
40373;SDS011;26079;45.958;12.492;2023-07-31T09:45:46;4.10;;;1.10;;
40373;SDS011;26079;45.958;12.492;2023-07-31T09:48:13;3.50;;;1.23;;
40373;SDS011;26079;45.958;12.492;2023-07-31T09:50:44;4.05;;;1.02;;
40373;SDS011;26079;45.958;12.492;2023-07-31T09:53:11;1.40;;;0.88;;
40373;SDS011;26079;45.958;12.492;2023-07-31T09:55:38;3.63;;;0.90;;
40373;SDS011;26079;45.958;12.492;2023-07-31T09:58:08;0.95;;;0.95;;
40373;SDS011;26079;45.958;12.492;2023-07-31T10:00:36;1.75;;;1.25;;
40373;SDS011;26079;45.958;12.492;2023-07-31T10:03:09;2.03;;;1.00;;
40373;SDS011;26079;45.958;12.492;2023-07-31T10:05:56;0.95;;;0.93;;
40373;SDS011;26079;45.958;12.492;2023-07-31T10:08:23;1.35;;;0.98;;
40373;SDS011;26079;45.958;12.492;2023-07-31T10:10:58;1.10;;;1.00;;
40373;SDS011;26079;45.958;12.492;2023-07-31T10:13:25;3.33;;;1.42;;
40373;SDS011;26079;45.958;12.492;2023-07-31T10:15:54;1.23;;;1.13;;
40373;SDS011;26079;45.958;12.492;2023-07-31T10:18:23;2.47;;;1.02;;
40373;SDS011;26079;45.958;12.492;2023-07-31T10:20:50;2.22;;;1.20;;
40373;SDS011;26079;45.958;12.492;2023-07-31T10:23:17;1.77;;;0.95;;
40373;SDS011;26079;45.958;12.492;2023-07-31T10:25:43;2.20;;;1.30;;
40373;SDS011;26079;45.958;12.492;2023-07-31T10:28:10;1.40;;;1.30;;
40373;SDS011;26079;45.958;12.492;2023-07-31T10:30:37;1.33;;;1.02;;
40373;SDS011;26079;45.958;12.492;2023-07-31T10:33:04;5.43;;;1.73;;
40373;SDS011;26079;45.958;12.492;2023-07-31T10:35:31;2.92;;;1.13;;
40373;SDS011;26079;45.958;12.492;2023-07-31T10:38:07;1.77;;;0.90;;
40373;SDS011;26079;45.958;12.492;2023-07-31T10:40:38;2.67;;;1.40;;
40373;SDS011;26079;45.958;12.492;2023-07-31T10:43:04;2.33;;;0.90;;
40373;SDS011;26079;45.958;12.492;2023-07-31T10:45:34;1.42;;;1.10;;
40373;SDS011;26079;45.958;12.492;2023-07-31T10:48:18;2.17;;;1.42;;
40373;SDS011;26079;45.958;12.492;2023-07-31T10:50:51;2.22;;;0.98;;
40373;SDS011;26079;45.958;12.492;2023-07-31T10:53:29;1.85;;;1.23;;
40373;SDS011;26079;45.958;12.492;2023-07-31T10:55:59;2.38;;;1.42;;
40373;SDS011;26079;45.958;12.492;2023-07-31T10:58:26;2.30;;;1.10;;
40373;SDS011;26079;45.958;12.492;2023-07-31T11:00:55;1.20;;;1.08;;
40373;SDS011;26079;45.958;12.492;2023-07-31T11:03:26;1.35;;;1.08;;
40373;SDS011;26079;45.958;12.492;2023-07-31T11:06:05;6.47;;;1.25;;
40373;SDS011;26079;45.958;12.492;2023-07-31T11:08:35;2.88;;;2.20;;
40373;SDS011;26079;45.958;12.492;2023-07-31T11:11:09;8.40;;;1.35;;
40373;SDS011;26079;45.958;12.492;2023-07-31T11:16:14;1.33;;;1.23;;
40373;SDS011;26079;45.958;12.492;2023-07-31T11:18:41;2.45;;;1.45;;
40373;SDS011;26079;45.958;12.492;2023-07-31T11:21:08;1.63;;;1.10;;
40373;SDS011;26079;45.958;12.492;2023-07-31T11:23:38;2.45;;;1.20;;
40373;SDS011;26079;45.958;12.492;2023-07-31T11:26:05;5.97;;;1.10;;
40373;SDS011;26079;45.958;12.492;2023-07-31T11:28:32;0.80;;;0.80;;
40373;SDS011;26079;45.958;12.492;2023-07-31T11:31:02;1.85;;;0.88;;
40373;SDS011;26079;45.958;12.492;2023-07-31T11:33:28;1.05;;;0.80;;
40373;SDS011;26079;45.958;12.492;2023-07-31T11:36:03;1.27;;;1.10;;
40373;SDS011;26079;45.958;12.492;2023-07-31T11:38:33;2.42;;;1.20;;
40373;SDS011;26079;45.958;12.492;2023-07-31T11:41:02;5.32;;;1.38;;
40373;SDS011;26079;45.958;12.492;2023-07-31T11:43:30;3.83;;;1.05;;
40373;SDS011;26079;45.958;12.492;2023-07-31T11:45:56;1.80;;;1.52;;
40373;SDS011;26079;45.958;12.492;2023-07-31T11:48:24;1.73;;;1.27;;
40373;SDS011;26079;45.958;12.492;2023-07-31T11:50:52;2.65;;;1.73;;
40373;SDS011;26079;45.958;12.492;2023-07-31T11:56:00;2.27;;;1.47;;
40373;SDS011;26079;45.958;12.492;2023-07-31T11:58:29;1.67;;;1.50;;
40373;SDS011;26079;45.958;12.492;2023-07-31T12:00:56;1.30;;;1.20;;
40373;SDS011;26079;45.958;12.492;2023-07-31T12:03:23;2.22;;;1.33;;
40373;SDS011;26079;45.958;12.492;2023-07-31T12:05:58;2.20;;;1.60;;
40373;SDS011;26079;45.958;12.492;2023-07-31T12:08:24;1.77;;;1.35;;
40373;SDS011;26079;45.958;12.492;2023-07-31T12:10:54;3.22;;;1.75;;
40373;SDS011;26079;45.958;12.492;2023-07-31T12:13:31;6.22;;;1.75;;
40373;SDS011;26079;45.958;12.492;2023-07-31T12:15:59;1.70;;;1.20;;
40373;SDS011;26079;45.958;12.492;2023-07-31T12:18:35;4.70;;;1.30;;
40373;SDS011;26079;45.958;12.492;2023-07-31T12:21:03;1.52;;;1.42;;
40373;SDS011;26079;45.958;12.492;2023-07-31T12:23:31;5.70;;;1.17;;
40373;SDS011;26079;45.958;12.492;2023-07-31T12:28:44;4.38;;;1.40;;
40373;SDS011;26079;45.958;12.492;2023-07-31T12:31:20;1.33;;;1.05;;
40373;SDS011;26079;45.958;12.492;2023-07-31T12:33:48;1.63;;;0.95;;
40373;SDS011;26079;45.958;12.492;2023-07-31T12:36:17;2.35;;;1.05;;
40373;SDS011;26079;45.958;12.492;2023-07-31T12:38:52;2.55;;;1.15;;
40373;SDS011;26079;45.958;12.492;2023-07-31T12:41:21;3.05;;;1.33;;
40373;SDS011;26079;45.958;12.492;2023-07-31T12:43:46;4.18;;;1.40;;
40373;SDS011;26079;45.958;12.492;2023-07-31T12:46:12;1.83;;;1.02;;
40373;SDS011;26079;45.958;12.492;2023-07-31T12:48:38;1.15;;;1.05;;
40373;SDS011;26079;45.958;12.492;2023-07-31T12:51:04;4.47;;;1.50;;
40373;SDS011;26079;45.958;12.492;2023-07-31T12:53:33;1.45;;;1.15;;
40373;SDS011;26079;45.958;12.492;2023-07-31T12:56:02;2.60;;;1.10;;
40373;SDS011;26079;45.958;12.492;2023-07-31T12:58:28;1.02;;;0.93;;
40373;SDS011;26079;45.958;12.492;2023-07-31T13:00:54;2.20;;;1.10;;
40373;SDS011;26079;45.958;12.492;2023-07-31T13:03:20;2.00;;;1.30;;
40373;SDS011;26079;45.958;12.492;2023-07-31T13:05:45;1.27;;;1.17;;
40373;SDS011;26079;45.958;12.492;2023-07-31T13:08:11;1.98;;;1.48;;
40373;SDS011;26079;45.958;12.492;2023-07-31T13:10:40;1.23;;;1.13;;
40373;SDS011;26079;45.958;12.492;2023-07-31T13:13:09;2.47;;;1.40;;
40373;SDS011;26079;45.958;12.492;2023-07-31T13:15:38;3.28;;;1.20;;
40373;SDS011;26079;45.958;12.492;2023-07-31T13:18:04;5.60;;;1.63;;
40373;SDS011;26079;45.958;12.492;2023-07-31T13:20:29;2.00;;;1.50;;
40373;SDS011;26079;45.958;12.492;2023-07-31T13:22:55;1.20;;;0.90;;
40373;SDS011;26079;45.958;12.492;2023-07-31T13:25:21;1.58;;;1.27;;
40373;SDS011;26079;45.958;12.492;2023-07-31T13:27:47;7.93;;;1.10;;
40373;SDS011;26079;45.958;12.492;2023-07-31T13:30:12;1.70;;;1.20;;
40373;SDS011;26079;45.958;12.492;2023-07-31T13:32:38;1.23;;;1.13;;
40373;SDS011;26079;45.958;12.492;2023-07-31T13:35:07;2.08;;;1.02;;
40373;SDS011;26079;45.958;12.492;2023-07-31T13:37:33;2.75;;;0.95;;
40373;SDS011;26079;45.958;12.492;2023-07-31T13:39:59;1.83;;;1.45;;
40373;SDS011;26079;45.958;12.492;2023-07-31T13:42:25;3.17;;;1.35;;
40373;SDS011;26079;45.958;12.492;2023-07-31T13:44:51;1.10;;;1.00;;
40373;SDS011;26079;45.958;12.492;2023-07-31T13:47:17;2.22;;;1.67;;
40373;SDS011;26079;45.958;12.492;2023-07-31T13:49:43;0.90;;;0.80;;
40373;SDS011;26079;45.958;12.492;2023-07-31T13:52:09;3.00;;;1.30;;
40373;SDS011;26079;45.958;12.492;2023-07-31T13:54:34;1.67;;;1.38;;
40373;SDS011;26079;45.958;12.492;2023-07-31T13:57:00;3.03;;;1.35;;
40373;SDS011;26079;45.958;12.492;2023-07-31T13:59:26;2.17;;;1.60;;
40373;SDS011;26079;45.958;12.492;2023-07-31T14:01:52;1.77;;;1.20;;
40373;SDS011;26079;45.958;12.492;2023-07-31T14:04:18;1.92;;;1.40;;
40373;SDS011;26079;45.958;12.492;2023-07-31T14:06:44;1.30;;;1.10;;
40373;SDS011;26079;45.958;12.492;2023-07-31T14:09:10;1.10;;;1.00;;
40373;SDS011;26079;45.958;12.492;2023-07-31T14:11:35;2.80;;;1.42;;
40373;SDS011;26079;45.958;12.492;2023-07-31T14:14:01;1.27;;;1.08;;
40373;SDS011;26079;45.958;12.492;2023-07-31T14:16:27;1.80;;;1.50;;
40373;SDS011;26079;45.958;12.492;2023-07-31T14:18:53;4.43;;;1.98;;
40373;SDS011;26079;45.958;12.492;2023-07-31T14:21:19;1.25;;;1.15;;
40373;SDS011;26079;45.958;12.492;2023-07-31T14:23:45;3.33;;;1.75;;
40373;SDS011;26079;45.958;12.492;2023-07-31T14:26:11;3.90;;;1.58;;
40373;SDS011;26079;45.958;12.492;2023-07-31T14:28:37;0.80;;;0.80;;
40373;SDS011;26079;45.958;12.492;2023-07-31T14:31:03;1.60;;;1.40;;
40373;SDS011;26079;45.958;12.492;2023-07-31T14:33:29;1.90;;;1.52;;
40373;SDS011;26079;45.958;12.492;2023-07-31T14:35:55;1.50;;;1.30;;
40373;SDS011;26079;45.958;12.492;2023-07-31T14:38:20;1.85;;;1.13;;
40373;SDS011;26079;45.958;12.492;2023-07-31T14:40:46;1.67;;;1.58;;
40373;SDS011;26079;45.958;12.492;2023-07-31T14:43:12;1.48;;;1.20;;
40373;SDS011;26079;45.958;12.492;2023-07-31T14:45:38;0.98;;;0.95;;
40373;SDS011;26079;45.958;12.492;2023-07-31T14:48:03;1.40;;;1.30;;
40373;SDS011;26079;45.958;12.492;2023-07-31T14:50:29;1.95;;;0.95;;
40373;SDS011;26079;45.958;12.492;2023-07-31T14:52:55;2.08;;;1.38;;